Shelby, Wisconsin
Current Conditions -  °F | °C
As of 5:53 PM on Monday 24 Nov 2014 (Local Time) from KLSE Reporting Station
Light Snow Light Snow  
Wind Chill: 14°   Ceiling: 2000
Heat Index: 25°   Visibility: 6mi
Dew Point: 18°   Wind: 13mph
Humidity: 75%   Direction: 290°WNW
Pressure: 29.64"   Gusts: NA
Location:  43.8°N, 91.145°W
Report Text: KLSE 242353Z 29011KT 6SM -SN OVC020 M04/M08 A2964 RMK AO2 UPB32E38SNB38 SLP047 P0000 60001 T10391078 11011 21039 51052
Loading
Personal Weather Stations






























Interactive Weather Map New forecast layout! Learn more

10-Day Weather Forecast

Advertisements
Track Severe Weather on mobile